sensor_id;sensor_type;location;lat;lon;timestamp;P1;durP1;ratioP1;P2;durP2;ratioP2
20443;SDS011;10381;53.730;10.010;2023-01-28T00:00:03;36.25;;;32.47;;
20443;SDS011;10381;53.730;10.010;2023-01-28T00:04:05;37.47;;;33.47;;
20443;SDS011;10381;53.730;10.010;2023-01-28T00:08:06;42.10;;;31.37;;
20443;SDS011;10381;53.730;10.010;2023-01-28T00:12:06;42.00;;;31.30;;
20443;SDS011;10381;53.730;10.010;2023-01-28T00:16:06;36.67;;;30.67;;
20443;SDS011;10381;53.730;10.010;2023-01-28T00:20:08;27.98;;;24.02;;
20443;SDS011;10381;53.730;10.010;2023-01-28T00:24:09;29.02;;;25.80;;
20443;SDS011;10381;53.730;10.010;2023-01-28T00:28:09;46.23;;;27.77;;
20443;SDS011;10381;53.730;10.010;2023-01-28T00:32:10;45.83;;;31.95;;
20443;SDS011;10381;53.730;10.010;2023-01-28T00:36:10;29.30;;;24.87;;
20443;SDS011;10381;53.730;10.010;2023-01-28T00:40:12;31.35;;;24.63;;
20443;SDS011;10381;53.730;10.010;2023-01-28T00:44:12;31.55;;;26.85;;
20443;SDS011;10381;53.730;10.010;2023-01-28T00:48:13;35.90;;;29.53;;
20443;SDS011;10381;53.730;10.010;2023-01-28T00:52:13;35.60;;;29.42;;
20443;SDS011;10381;53.730;10.010;2023-01-28T00:56:14;39.63;;;29.83;;
20443;SDS011;10381;53.730;10.010;2023-01-28T01:00:15;42.80;;;31.52;;
20443;SDS011;10381;53.730;10.010;2023-01-28T01:04:18;34.15;;;30.40;;
20443;SDS011;10381;53.730;10.010;2023-01-28T01:08:25;32.22;;;27.95;;
20443;SDS011;10381;53.730;10.010;2023-01-28T01:12:33;37.95;;;31.00;;
20443;SDS011;10381;53.730;10.010;2023-01-28T01:16:34;36.27;;;30.40;;
20443;SDS011;10381;53.730;10.010;2023-01-28T01:20:35;41.80;;;33.22;;
20443;SDS011;10381;53.730;10.010;2023-01-28T01:24:40;32.88;;;29.52;;
20443;SDS011;10381;53.730;10.010;2023-01-28T01:28:40;31.90;;;28.70;;
20443;SDS011;10381;53.730;10.010;2023-01-28T01:32:41;39.22;;;35.30;;
20443;SDS011;10381;53.730;10.010;2023-01-28T01:36:41;38.03;;;34.40;;
20443;SDS011;10381;53.730;10.010;2023-01-28T01:40:43;38.15;;;34.25;;
20443;SDS011;10381;53.730;10.010;2023-01-28T01:49:00;40.60;;;36.70;;
20443;SDS011;10381;53.730;10.010;2023-01-28T01:53:12;38.15;;;34.50;;
20443;SDS011;10381;53.730;10.010;2023-01-28T01:57:16;35.00;;;31.40;;
20443;SDS011;10381;53.730;10.010;2023-01-28T02:01:21;32.15;;;28.60;;
20443;SDS011;10381;53.730;10.010;2023-01-28T02:05:24;30.50;;;27.02;;
20443;SDS011;10381;53.730;10.010;2023-01-28T02:09:26;35.08;;;26.42;;
20443;SDS011;10381;53.730;10.010;2023-01-28T02:13:29;23.85;;;21.45;;
20443;SDS011;10381;53.730;10.010;2023-01-28T02:17:37;28.42;;;23.63;;
20443;SDS011;10381;53.730;10.010;2023-01-28T02:21:52;30.42;;;26.52;;
20443;SDS011;10381;53.730;10.010;2023-01-28T02:30:41;32.45;;;28.77;;
20443;SDS011;10381;53.730;10.010;2023-01-28T02:34:50;24.83;;;22.42;;
20443;SDS011;10381;53.730;10.010;2023-01-28T02:38:53;31.85;;;24.35;;
20443;SDS011;10381;53.730;10.010;2023-01-28T02:42:57;28.05;;;25.13;;
20443;SDS011;10381;53.730;10.010;2023-01-28T02:46:58;28.45;;;25.38;;
20443;SDS011;10381;53.730;10.010;2023-01-28T02:51:27;29.98;;;25.83;;
20443;SDS011;10381;53.730;10.010;2023-01-28T02:55:39;30.27;;;25.48;;
20443;SDS011;10381;53.730;10.010;2023-01-28T03:04:26;33.20;;;27.17;;
20443;SDS011;10381;53.730;10.010;2023-01-28T03:08:33;30.23;;;27.15;;
20443;SDS011;10381;53.730;10.010;2023-01-28T03:12:56;31.30;;;28.08;;
20443;SDS011;10381;53.730;10.010;2023-01-28T03:17:20;31.50;;;28.30;;
20443;SDS011;10381;53.730;10.010;2023-01-28T03:21:48;32.40;;;26.60;;
20443;SDS011;10381;53.730;10.010;2023-01-28T03:26:07;30.83;;;27.58;;
20443;SDS011;10381;53.730;10.010;2023-01-28T03:30:37;38.75;;;27.98;;
20443;SDS011;10381;53.730;10.010;2023-01-28T03:35:01;34.17;;;29.00;;
20443;SDS011;10381;53.730;10.010;2023-01-28T03:39:28;37.50;;;31.30;;
20443;SDS011;10381;53.730;10.010;2023-01-28T03:43:29;37.25;;;33.55;;
20443;SDS011;10381;53.730;10.010;2023-01-28T03:47:30;36.35;;;32.53;;
20443;SDS011;10381;53.730;10.010;2023-01-28T03:51:31;39.22;;;34.90;;
20443;SDS011;10381;53.730;10.010;2023-01-28T03:55:31;41.20;;;37.03;;
20443;SDS011;10381;53.730;10.010;2023-01-28T03:59:32;45.20;;;40.50;;
20443;SDS011;10381;53.730;10.010;2023-01-28T04:03:33;46.08;;;41.60;;
20443;SDS011;10381;53.730;10.010;2023-01-28T04:07:34;43.53;;;39.15;;
20443;SDS011;10381;53.730;10.010;2023-01-28T04:11:34;46.37;;;41.50;;
20443;SDS011;10381;53.730;10.010;2023-01-28T04:15:35;50.77;;;45.83;;
20443;SDS011;10381;53.730;10.010;2023-01-28T04:19:35;50.25;;;45.10;;
20443;SDS011;10381;53.730;10.010;2023-01-28T04:23:37;50.58;;;45.88;;
20443;SDS011;10381;53.730;10.010;2023-01-28T04:27:37;53.47;;;48.30;;
20443;SDS011;10381;53.730;10.010;2023-01-28T04:31:37;58.60;;;53.08;;
20443;SDS011;10381;53.730;10.010;2023-01-28T04:35:38;63.10;;;57.20;;
20443;SDS011;10381;53.730;10.010;2023-01-28T04:39:38;66.63;;;60.33;;
20443;SDS011;10381;53.730;10.010;2023-01-28T04:43:38;72.93;;;66.50;;
20443;SDS011;10381;53.730;10.010;2023-01-28T04:47:39;76.78;;;69.40;;
20443;SDS011;10381;53.730;10.010;2023-01-28T04:51:41;81.32;;;73.85;;
20443;SDS011;10381;53.730;10.010;2023-01-28T04:55:41;88.00;;;79.90;;
20443;SDS011;10381;53.730;10.010;2023-01-28T04:59:43;90.80;;;82.50;;
20443;SDS011;10381;53.730;10.010;2023-01-28T05:03:43;97.77;;;89.07;;
20443;SDS011;10381;53.730;10.010;2023-01-28T05:07:43;101.33;;;92.13;;
20443;SDS011;10381;53.730;10.010;2023-01-28T05:11:49;107.15;;;97.35;;
20443;SDS011;10381;53.730;10.010;2023-01-28T05:15:49;108.90;;;98.87;;
20443;SDS011;10381;53.730;10.010;2023-01-28T05:19:51;111.78;;;101.30;;
20443;SDS011;10381;53.730;10.010;2023-01-28T05:23:51;119.03;;;107.83;;
20443;SDS011;10381;53.730;10.010;2023-01-28T05:27:52;114.15;;;103.45;;
20443;SDS011;10381;53.730;10.010;2023-01-28T05:31:52;117.88;;;106.68;;
20443;SDS011;10381;53.730;10.010;2023-01-28T05:35:53;114.05;;;103.07;;
20443;SDS011;10381;53.730;10.010;2023-01-28T05:39:53;112.40;;;101.35;;
20443;SDS011;10381;53.730;10.010;2023-01-28T05:43:53;116.95;;;105.50;;
20443;SDS011;10381;53.730;10.010;2023-01-28T05:47:53;119.07;;;107.05;;
20443;SDS011;10381;53.730;10.010;2023-01-28T05:51:54;111.53;;;100.27;;
20443;SDS011;10381;53.730;10.010;2023-01-28T05:55:54;110.50;;;96.90;;
20443;SDS011;10381;53.730;10.010;2023-01-28T05:59:54;107.15;;;96.05;;
20443;SDS011;10381;53.730;10.010;2023-01-28T06:03:55;105.07;;;93.93;;
20443;SDS011;10381;53.730;10.010;2023-01-28T06:07:55;105.10;;;93.93;;
20443;SDS011;10381;53.730;10.010;2023-01-28T06:11:55;103.20;;;92.57;;
20443;SDS011;10381;53.730;10.010;2023-01-28T06:15:56;101.47;;;91.20;;
20443;SDS011;10381;53.730;10.010;2023-01-28T06:19:56;103.67;;;93.03;;
20443;SDS011;10381;53.730;10.010;2023-01-28T06:23:56;111.05;;;99.47;;
20443;SDS011;10381;53.730;10.010;2023-01-28T06:27:57;103.50;;;89.10;;
20443;SDS011;10381;53.730;10.010;2023-01-28T06:31:58;97.13;;;86.75;;
20443;SDS011;10381;53.730;10.010;2023-01-28T06:36:00;102.70;;;91.57;;
20443;SDS011;10381;53.730;10.010;2023-01-28T06:40:02;109.55;;;96.90;;
20443;SDS011;10381;53.730;10.010;2023-01-28T06:44:03;96.55;;;86.28;;
20443;SDS011;10381;53.730;10.010;2023-01-28T06:48:03;97.88;;;87.78;;
20443;SDS011;10381;53.730;10.010;2023-01-28T06:52:04;100.32;;;89.65;;
20443;SDS011;10381;53.730;10.010;2023-01-28T06:56:04;106.20;;;94.10;;
20443;SDS011;10381;53.730;10.010;2023-01-28T07:00:08;99.07;;;88.18;;
20443;SDS011;10381;53.730;10.010;2023-01-28T07:04:10;93.32;;;81.97;;
20443;SDS011;10381;53.730;10.010;2023-01-28T07:08:10;96.97;;;84.63;;
20443;SDS011;10381;53.730;10.010;2023-01-28T07:12:10;95.97;;;82.55;;
20443;SDS011;10381;53.730;10.010;2023-01-28T07:16:11;92.03;;;80.70;;
20443;SDS011;10381;53.730;10.010;2023-01-28T07:20:12;98.70;;;88.17;;
20443;SDS011;10381;53.730;10.010;2023-01-28T07:24:14;105.55;;;94.03;;
20443;SDS011;10381;53.730;10.010;2023-01-28T07:28:14;104.32;;;92.95;;
20443;SDS011;10381;53.730;10.010;2023-01-28T07:32:20;100.28;;;89.57;;
20443;SDS011;10381;53.730;10.010;2023-01-28T07:36:20;99.07;;;88.28;;
20443;SDS011;10381;53.730;10.010;2023-01-28T07:40:20;101.75;;;90.72;;
20443;SDS011;10381;53.730;10.010;2023-01-28T07:44:21;104.18;;;89.90;;
20443;SDS011;10381;53.730;10.010;2023-01-28T07:48:21;108.65;;;93.05;;
20443;SDS011;10381;53.730;10.010;2023-01-28T07:52:22;188.80;;;119.87;;
20443;SDS011;10381;53.730;10.010;2023-01-28T07:56:22;152.60;;;110.27;;
20443;SDS011;10381;53.730;10.010;2023-01-28T08:00:23;125.05;;;98.78;;
20443;SDS011;10381;53.730;10.010;2023-01-28T08:04:24;114.95;;;93.13;;
20443;SDS011;10381;53.730;10.010;2023-01-28T08:08:25;123.57;;;98.23;;
20443;SDS011;10381;53.730;10.010;2023-01-28T08:12:26;110.32;;;92.80;;
20443;SDS011;10381;53.730;10.010;2023-01-28T08:16:26;113.55;;;92.95;;
20443;SDS011;10381;53.730;10.010;2023-01-28T08:20:28;114.68;;;88.40;;
20443;SDS011;10381;53.730;10.010;2023-01-28T08:24:28;110.63;;;84.88;;
20443;SDS011;10381;53.730;10.010;2023-01-28T08:28:28;110.10;;;85.53;;
20443;SDS011;10381;53.730;10.010;2023-01-28T08:32:29;105.75;;;86.70;;
20443;SDS011;10381;53.730;10.010;2023-01-28T08:36:30;105.72;;;79.63;;
20443;SDS011;10381;53.730;10.010;2023-01-28T08:40:30;103.40;;;85.22;;
20443;SDS011;10381;53.730;10.010;2023-01-28T08:44:30;108.82;;;82.72;;
20443;SDS011;10381;53.730;10.010;2023-01-28T08:48:31;91.50;;;77.32;;
20443;SDS011;10381;53.730;10.010;2023-01-28T08:52:31;88.77;;;73.47;;
20443;SDS011;10381;53.730;10.010;2023-01-28T08:56:31;70.57;;;60.50;;
20443;SDS011;10381;53.730;10.010;2023-01-28T09:00:32;67.95;;;54.38;;
20443;SDS011;10381;53.730;10.010;2023-01-28T09:04:33;68.03;;;48.67;;
20443;SDS011;10381;53.730;10.010;2023-01-28T09:08:34;67.07;;;45.03;;
20443;SDS011;10381;53.730;10.010;2023-01-28T09:12:34;62.05;;;43.90;;
20443;SDS011;10381;53.730;10.010;2023-01-28T09:16:34;65.78;;;43.03;;
20443;SDS011;10381;53.730;10.010;2023-01-28T09:20:35;53.80;;;38.07;;
20443;SDS011;10381;53.730;10.010;2023-01-28T09:24:36;47.72;;;32.78;;
20443;SDS011;10381;53.730;10.010;2023-01-28T09:28:37;46.13;;;29.50;;
20443;SDS011;10381;53.730;10.010;2023-01-28T09:32:37;37.83;;;26.70;;
20443;SDS011;10381;53.730;10.010;2023-01-28T09:36:38;45.00;;;24.30;;
20443;SDS011;10381;53.730;10.010;2023-01-28T09:40:42;46.95;;;26.13;;
20443;SDS011;10381;53.730;10.010;2023-01-28T09:45:06;50.05;;;25.70;;
20443;SDS011;10381;53.730;10.010;2023-01-28T09:49:34;37.88;;;22.63;;
20443;SDS011;10381;53.730;10.010;2023-01-28T09:53:44;39.38;;;23.98;;
20443;SDS011;10381;53.730;10.010;2023-01-28T09:57:51;38.95;;;24.77;;
20443;SDS011;10381;53.730;10.010;2023-01-28T10:01:59;35.95;;;23.70;;
20443;SDS011;10381;53.730;10.010;2023-01-28T10:06:17;36.47;;;24.13;;
20443;SDS011;10381;53.730;10.010;2023-01-28T10:10:28;34.92;;;23.70;;
20443;SDS011;10381;53.730;10.010;2023-01-28T10:14:48;35.80;;;24.55;;
20443;SDS011;10381;53.730;10.010;2023-01-28T10:23:36;38.10;;;24.88;;
20443;SDS011;10381;53.730;10.010;2023-01-28T10:27:42;43.05;;;25.35;;
20443;SDS011;10381;53.730;10.010;2023-01-28T10:31:52;33.00;;;23.75;;
20443;SDS011;10381;53.730;10.010;2023-01-28T10:35:54;41.28;;;25.70;;
20443;SDS011;10381;53.730;10.010;2023-01-28T10:39:56;37.35;;;24.50;;
20443;SDS011;10381;53.730;10.010;2023-01-28T10:43:58;46.80;;;25.15;;
20443;SDS011;10381;53.730;10.010;2023-01-28T10:48:03;40.65;;;24.77;;
20443;SDS011;10381;53.730;10.010;2023-01-28T10:52:11;51.95;;;26.33;;
20443;SDS011;10381;53.730;10.010;2023-01-28T10:56:15;43.50;;;25.17;;
20443;SDS011;10381;53.730;10.010;2023-01-28T11:00:23;42.78;;;26.70;;
20443;SDS011;10381;53.730;10.010;2023-01-28T11:04:26;42.83;;;26.05;;
20443;SDS011;10381;53.730;10.010;2023-01-28T11:08:29;36.92;;;24.98;;
20443;SDS011;10381;53.730;10.010;2023-01-28T11:12:30;42.20;;;26.50;;
20443;SDS011;10381;53.730;10.010;2023-01-28T11:16:30;37.50;;;25.50;;
20443;SDS011;10381;53.730;10.010;2023-01-28T11:20:34;35.77;;;25.17;;
20443;SDS011;10381;53.730;10.010;2023-01-28T11:24:37;35.40;;;24.15;;
20443;SDS011;10381;53.730;10.010;2023-01-28T11:28:39;41.60;;;25.20;;
20443;SDS011;10381;53.730;10.010;2023-01-28T11:32:42;35.80;;;24.60;;
20443;SDS011;10381;53.730;10.010;2023-01-28T11:36:53;39.60;;;23.73;;
20443;SDS011;10381;53.730;10.010;2023-01-28T11:40:59;41.42;;;25.30;;
20443;SDS011;10381;53.730;10.010;2023-01-28T11:45:00;42.28;;;25.95;;
20443;SDS011;10381;53.730;10.010;2023-01-28T11:49:37;36.27;;;24.07;;
20443;SDS011;10381;53.730;10.010;2023-01-28T11:58:01;44.40;;;25.60;;
20443;SDS011;10381;53.730;10.010;2023-01-28T12:15:48;32.85;;;23.60;;
20443;SDS011;10381;53.730;10.010;2023-01-28T12:37:38;46.00;;;25.77;;
20443;SDS011;10381;53.730;10.010;2023-01-28T12:42:11;39.70;;;24.92;;
20443;SDS011;10381;53.730;10.010;2023-01-28T12:46:21;44.15;;;24.85;;
20443;SDS011;10381;53.730;10.010;2023-01-28T12:50:30;36.47;;;25.00;;
20443;SDS011;10381;53.730;10.010;2023-01-28T12:58:58;36.63;;;25.42;;
20443;SDS011;10381;53.730;10.010;2023-01-28T13:07:13;39.97;;;25.23;;
20443;SDS011;10381;53.730;10.010;2023-01-28T13:11:17;35.40;;;26.25;;
20443;SDS011;10381;53.730;10.010;2023-01-28T13:15:19;37.05;;;25.45;;
20443;SDS011;10381;53.730;10.010;2023-01-28T13:19:21;43.03;;;26.50;;
20443;SDS011;10381;53.730;10.010;2023-01-28T13:23:25;38.67;;;25.02;;
20443;SDS011;10381;53.730;10.010;2023-01-28T13:27:40;45.38;;;24.77;;
20443;SDS011;10381;53.730;10.010;2023-01-28T13:31:42;41.03;;;24.80;;
20443;SDS011;10381;53.730;10.010;2023-01-28T13:35:49;41.47;;;26.80;;
20443;SDS011;10381;53.730;10.010;2023-01-28T13:52:31;34.60;;;25.33;;
20443;SDS011;10381;53.730;10.010;2023-01-28T14:14:35;41.03;;;26.33;;
20443;SDS011;10381;53.730;10.010;2023-01-28T14:18:50;44.25;;;26.70;;
20443;SDS011;10381;53.730;10.010;2023-01-28T14:22:53;40.50;;;27.05;;
20443;SDS011;10381;53.730;10.010;2023-01-28T14:27:06;44.40;;;26.92;;
20443;SDS011;10381;53.730;10.010;2023-01-28T14:35:31;40.50;;;26.13;;
20443;SDS011;10381;53.730;10.010;2023-01-28T14:39:40;41.95;;;25.35;;
20443;SDS011;10381;53.730;10.010;2023-01-28T14:43:45;47.45;;;28.27;;
20443;SDS011;10381;53.730;10.010;2023-01-28T15:00:55;42.58;;;25.70;;
20443;SDS011;10381;53.730;10.010;2023-01-28T15:05:13;60.63;;;33.30;;
20443;SDS011;10381;53.730;10.010;2023-01-28T15:09:15;58.75;;;33.53;;
20443;SDS011;10381;53.730;10.010;2023-01-28T15:13:19;43.70;;;26.95;;
20443;SDS011;10381;53.730;10.010;2023-01-28T15:17:25;39.78;;;26.17;;
20443;SDS011;10381;53.730;10.010;2023-01-28T15:21:27;45.83;;;27.05;;
20443;SDS011;10381;53.730;10.010;2023-01-28T15:25:29;40.58;;;27.50;;
20443;SDS011;10381;53.730;10.010;2023-01-28T15:29:30;37.58;;;28.88;;
20443;SDS011;10381;53.730;10.010;2023-01-28T15:33:32;36.60;;;28.48;;
20443;SDS011;10381;53.730;10.010;2023-01-28T15:37:32;41.10;;;29.63;;
20443;SDS011;10381;53.730;10.010;2023-01-28T15:41:34;44.33;;;31.30;;
20443;SDS011;10381;53.730;10.010;2023-01-28T15:45:43;41.95;;;34.30;;
20443;SDS011;10381;53.730;10.010;2023-01-28T15:49:45;48.42;;;38.08;;
20443;SDS011;10381;53.730;10.010;2023-01-28T15:53:49;54.75;;;40.88;;
20443;SDS011;10381;53.730;10.010;2023-01-28T15:57:55;54.65;;;41.33;;
20443;SDS011;10381;53.730;10.010;2023-01-28T16:06:29;49.40;;;40.70;;
20443;SDS011;10381;53.730;10.010;2023-01-28T16:10:33;63.88;;;42.97;;
20443;SDS011;10381;53.730;10.010;2023-01-28T16:14:39;53.03;;;41.20;;
20443;SDS011;10381;53.730;10.010;2023-01-28T16:18:46;56.70;;;44.38;;
20443;SDS011;10381;53.730;10.010;2023-01-28T16:22:55;58.78;;;45.72;;
20443;SDS011;10381;53.730;10.010;2023-01-28T16:27:01;59.70;;;45.70;;
20443;SDS011;10381;53.730;10.010;2023-01-28T16:31:04;59.20;;;45.97;;
20443;SDS011;10381;53.730;10.010;2023-01-28T16:35:12;61.55;;;50.95;;
20443;SDS011;10381;53.730;10.010;2023-01-28T16:39:17;76.20;;;55.40;;
20443;SDS011;10381;53.730;10.010;2023-01-28T16:43:18;70.32;;;57.20;;
20443;SDS011;10381;53.730;10.010;2023-01-28T16:47:18;74.67;;;60.47;;
20443;SDS011;10381;53.730;10.010;2023-01-28T16:51:18;81.40;;;65.50;;
20443;SDS011;10381;53.730;10.010;2023-01-28T16:55:20;95.53;;;67.88;;
20443;SDS011;10381;53.730;10.010;2023-01-28T16:59:21;83.95;;;68.28;;
20443;SDS011;10381;53.730;10.010;2023-01-28T17:03:22;74.80;;;66.53;;
20443;SDS011;10381;53.730;10.010;2023-01-28T17:07:22;82.30;;;69.10;;
20443;SDS011;10381;53.730;10.010;2023-01-28T17:11:24;89.20;;;70.65;;
20443;SDS011;10381;53.730;10.010;2023-01-28T17:15:27;83.93;;;71.13;;
20443;SDS011;10381;53.730;10.010;2023-01-28T17:19:28;88.22;;;78.45;;
20443;SDS011;10381;53.730;10.010;2023-01-28T17:23:28;82.63;;;71.45;;
20443;SDS011;10381;53.730;10.010;2023-01-28T17:27:28;82.85;;;69.95;;
20443;SDS011;10381;53.730;10.010;2023-01-28T17:31:29;82.10;;;73.07;;
20443;SDS011;10381;53.730;10.010;2023-01-28T17:35:29;87.37;;;77.40;;
20443;SDS011;10381;53.730;10.010;2023-01-28T17:39:30;95.15;;;81.85;;
20443;SDS011;10381;53.730;10.010;2023-01-28T17:43:30;105.88;;;90.53;;
20443;SDS011;10381;53.730;10.010;2023-01-28T17:47:31;98.65;;;86.95;;
20443;SDS011;10381;53.730;10.010;2023-01-28T17:51:31;104.30;;;91.80;;
20443;SDS011;10381;53.730;10.010;2023-01-28T17:55:33;105.47;;;87.03;;
20443;SDS011;10381;53.730;10.010;2023-01-28T17:59:35;113.22;;;88.88;;
20443;SDS011;10381;53.730;10.010;2023-01-28T18:03:36;120.30;;;93.40;;
20443;SDS011;10381;53.730;10.010;2023-01-28T18:07:36;107.70;;;86.83;;
20443;SDS011;10381;53.730;10.010;2023-01-28T18:11:37;99.93;;;84.00;;
20443;SDS011;10381;53.730;10.010;2023-01-28T18:15:37;107.80;;;89.17;;
20443;SDS011;10381;53.730;10.010;2023-01-28T18:19:37;96.13;;;81.83;;
20443;SDS011;10381;53.730;10.010;2023-01-28T18:23:37;103.67;;;88.53;;
20443;SDS011;10381;53.730;10.010;2023-01-28T18:27:39;90.80;;;77.95;;
20443;SDS011;10381;53.730;10.010;2023-01-28T18:31:46;115.45;;;79.30;;
20443;SDS011;10381;53.730;10.010;2023-01-28T18:35:47;100.25;;;84.55;;
20443;SDS011;10381;53.730;10.010;2023-01-28T18:39:48;99.90;;;85.20;;
20443;SDS011;10381;53.730;10.010;2023-01-28T18:43:48;93.47;;;81.47;;
20443;SDS011;10381;53.730;10.010;2023-01-28T18:47:48;94.00;;;83.93;;
20443;SDS011;10381;53.730;10.010;2023-01-28T18:51:49;92.97;;;81.67;;
20443;SDS011;10381;53.730;10.010;2023-01-28T18:55:49;93.93;;;82.85;;
20443;SDS011;10381;53.730;10.010;2023-01-28T18:59:49;100.27;;;87.00;;
20443;SDS011;10381;53.730;10.010;2023-01-28T19:03:50;111.60;;;94.67;;
20443;SDS011;10381;53.730;10.010;2023-01-28T19:07:50;106.45;;;93.18;;
20443;SDS011;10381;53.730;10.010;2023-01-28T19:11:50;111.63;;;93.47;;
20443;SDS011;10381;53.730;10.010;2023-01-28T19:15:51;109.53;;;97.70;;
20443;SDS011;10381;53.730;10.010;2023-01-28T19:19:51;117.78;;;104.90;;
20443;SDS011;10381;53.730;10.010;2023-01-28T19:23:53;124.80;;;110.53;;
20443;SDS011;10381;53.730;10.010;2023-01-28T19:27:55;130.93;;;116.60;;
20443;SDS011;10381;53.730;10.010;2023-01-28T19:31:55;134.60;;;118.30;;
20443;SDS011;10381;53.730;10.010;2023-01-28T19:35:59;139.47;;;124.23;;
20443;SDS011;10381;53.730;10.010;2023-01-28T19:39:59;149.25;;;132.70;;
20443;SDS011;10381;53.730;10.010;2023-01-28T19:44:00;147.87;;;132.27;;
20443;SDS011;10381;53.730;10.010;2023-01-28T19:48:01;170.98;;;145.80;;
20443;SDS011;10381;53.730;10.010;2023-01-28T19:52:01;173.17;;;152.50;;
20443;SDS011;10381;53.730;10.010;2023-01-28T19:56:02;181.98;;;162.20;;
20443;SDS011;10381;53.730;10.010;2023-01-28T20:00:05;175.40;;;154.40;;
20443;SDS011;10381;53.730;10.010;2023-01-28T20:04:06;187.35;;;167.38;;
20443;SDS011;10381;53.730;10.010;2023-01-28T20:08:06;193.30;;;170.97;;
20443;SDS011;10381;53.730;10.010;2023-01-28T20:12:06;210.03;;;187.17;;
20443;SDS011;10381;53.730;10.010;2023-01-28T20:16:21;219.05;;;195.63;;
20443;SDS011;10381;53.730;10.010;2023-01-28T20:20:25;234.40;;;208.93;;
20443;SDS011;10381;53.730;10.010;2023-01-28T20:24:26;262.73;;;233.80;;
20443;SDS011;10381;53.730;10.010;2023-01-28T20:28:26;275.70;;;246.00;;
20443;SDS011;10381;53.730;10.010;2023-01-28T20:32:26;282.83;;;252.88;;
20443;SDS011;10381;53.730;10.010;2023-01-28T20:36:27;281.38;;;251.43;;
20443;SDS011;10381;53.730;10.010;2023-01-28T20:40:27;288.10;;;257.35;;
20443;SDS011;10381;53.730;10.010;2023-01-28T20:44:27;286.80;;;256.17;;
20443;SDS011;10381;53.730;10.010;2023-01-28T20:48:31;290.48;;;259.65;;
20443;SDS011;10381;53.730;10.010;2023-01-28T20:52:31;283.98;;;253.43;;
20443;SDS011;10381;53.730;10.010;2023-01-28T20:56:32;286.80;;;255.80;;
20443;SDS011;10381;53.730;10.010;2023-01-28T21:00:32;255.82;;;228.05;;
20443;SDS011;10381;53.730;10.010;2023-01-28T21:04:32;258.53;;;230.40;;
20443;SDS011;10381;53.730;10.010;2023-01-28T21:08:33;272.30;;;243.02;;
20443;SDS011;10381;53.730;10.010;2023-01-28T21:12:33;276.67;;;241.37;;
20443;SDS011;10381;53.730;10.010;2023-01-28T21:16:33;279.83;;;249.20;;
20443;SDS011;10381;53.730;10.010;2023-01-28T21:20:34;278.13;;;244.15;;
20443;SDS011;10381;53.730;10.010;2023-01-28T21:24:34;291.20;;;258.60;;
20443;SDS011;10381;53.730;10.010;2023-01-28T21:28:35;338.70;;;288.73;;
20443;SDS011;10381;53.730;10.010;2023-01-28T21:32:35;339.23;;;297.35;;
20443;SDS011;10381;53.730;10.010;2023-01-28T21:36:35;356.15;;;308.65;;
20443;SDS011;10381;53.730;10.010;2023-01-28T21:40:36;341.13;;;304.40;;
20443;SDS011;10381;53.730;10.010;2023-01-28T21:44:36;343.90;;;305.65;;
20443;SDS011;10381;53.730;10.010;2023-01-28T21:48:37;341.07;;;296.97;;
20443;SDS011;10381;53.730;10.010;2023-01-28T21:52:37;331.90;;;287.70;;
20443;SDS011;10381;53.730;10.010;2023-01-28T21:56:37;327.73;;;287.55;;
20443;SDS011;10381;53.730;10.010;2023-01-28T22:00:38;325.23;;;285.02;;
20443;SDS011;10381;53.730;10.010;2023-01-28T22:04:39;322.23;;;284.37;;
20443;SDS011;10381;53.730;10.010;2023-01-28T22:08:40;320.48;;;285.30;;
20443;SDS011;10381;53.730;10.010;2023-01-28T22:12:41;310.53;;;275.83;;
20443;SDS011;10381;53.730;10.010;2023-01-28T22:16:41;310.90;;;273.70;;
20443;SDS011;10381;53.730;10.010;2023-01-28T22:20:42;328.00;;;273.75;;
20443;SDS011;10381;53.730;10.010;2023-01-28T22:24:43;332.42;;;285.40;;
20443;SDS011;10381;53.730;10.010;2023-01-28T22:28:43;338.45;;;301.02;;
20443;SDS011;10381;53.730;10.010;2023-01-28T22:32:43;339.63;;;302.20;;
20443;SDS011;10381;53.730;10.010;2023-01-28T22:36:44;356.40;;;311.83;;
20443;SDS011;10381;53.730;10.010;2023-01-28T22:40:45;336.73;;;300.05;;
20443;SDS011;10381;53.730;10.010;2023-01-28T22:44:45;341.77;;;304.00;;
20443;SDS011;10381;53.730;10.010;2023-01-28T22:48:45;342.90;;;301.90;;
20443;SDS011;10381;53.730;10.010;2023-01-28T22:52:46;361.33;;;321.33;;
20443;SDS011;10381;53.730;10.010;2023-01-28T22:56:47;386.27;;;333.70;;
20443;SDS011;10381;53.730;10.010;2023-01-28T23:00:50;394.48;;;351.30;;
20443;SDS011;10381;53.730;10.010;2023-01-28T23:04:50;386.02;;;341.52;;
20443;SDS011;10381;53.730;10.010;2023-01-28T23:08:51;392.30;;;350.30;;
20443;SDS011;10381;53.730;10.010;2023-01-28T23:12:51;436.33;;;390.48;;
20443;SDS011;10381;53.730;10.010;2023-01-28T23:16:54;491.52;;;441.45;;
20443;SDS011;10381;53.730;10.010;2023-01-28T23:25:42;827.78;;;747.55;;
20443;SDS011;10381;53.730;10.010;2023-01-28T23:29:43;785.53;;;703.53;;
20443;SDS011;10381;53.730;10.010;2023-01-28T23:33:44;880.03;;;779.17;;
20443;SDS011;10381;53.730;10.010;2023-01-28T23:37:44;877.97;;;753.63;;
20443;SDS011;10381;53.730;10.010;2023-01-28T23:41:45;875.17;;;740.13;;
20443;SDS011;10381;53.730;10.010;2023-01-28T23:45:45;888.50;;;746.30;;
20443;SDS011;10381;53.730;10.010;2023-01-28T23:49:46;894.83;;;738.88;;
20443;SDS011;10381;53.730;10.010;2023-01-28T23:53:47;923.33;;;750.42;;
20443;SDS011;10381;53.730;10.010;2023-01-28T23:57:51;935.35;;;764.60;;
